createdAt,value
2023-05-01T00:00:47.902Z,7.58
2023-05-01T00:01:51.084Z,7.56
2023-05-01T00:02:53.804Z,7.55
2023-05-01T00:03:58.437Z,7.55
2023-05-01T00:05:02.020Z,7.49
2023-05-01T00:06:05.543Z,7.50
2023-05-01T00:07:07.809Z,7.48
2023-05-01T00:08:10.129Z,7.49
2023-05-01T00:09:12.289Z,7.46
2023-05-01T00:10:14.696Z,7.43
2023-05-01T00:11:18.849Z,7.43
2023-05-01T00:12:20.792Z,7.38
2023-05-01T00:13:23.040Z,7.41
2023-05-01T00:14:25.563Z,7.37
2023-05-01T00:15:27.731Z,7.36
2023-05-01T00:16:30.121Z,7.34
2023-05-01T00:17:32.389Z,7.37
2023-05-01T00:18:34.598Z,7.38
2023-05-01T00:19:36.571Z,7.38
2023-05-01T00:20:38.854Z,7.33
2023-05-01T00:21:41.184Z,7.30
2023-05-01T00:22:43.134Z,7.30
2023-05-01T00:23:45.252Z,7.34
2023-05-01T00:24:48.201Z,7.31
2023-05-01T00:25:50.493Z,7.27
2023-05-01T00:26:53.287Z,7.23
2023-05-01T00:27:55.595Z,7.21
2023-05-01T00:28:58.275Z,7.21
2023-05-01T00:30:00.495Z,7.18
2023-05-01T00:31:03.306Z,7.17
2023-05-01T00:33:20.516Z,7.30
2023-05-01T00:34:22.695Z,7.13
2023-05-01T00:35:24.783Z,7.16
2023-05-01T00:36:27.101Z,7.11
2023-05-01T00:37:29.291Z,7.07
2023-05-01T00:38:31.574Z,7.08
2023-05-01T00:39:34.317Z,7.09
2023-05-01T00:41:53.814Z,7.22
2023-05-01T00:42:56.701Z,6.98
2023-05-01T00:43:58.965Z,7.00
2023-05-01T00:45:01.240Z,7.01
2023-05-01T00:46:03.778Z,7.04
2023-05-01T00:47:06.448Z,7.01
2023-05-01T00:48:09.670Z,6.99
2023-05-01T00:49:12.044Z,6.97
2023-05-01T00:50:16.261Z,6.98
2023-05-01T00:51:20.487Z,7.00
2023-05-01T00:52:25.032Z,7.02
2023-05-01T00:53:27.504Z,7.01
2023-05-01T00:54:29.683Z,6.99
2023-05-01T00:55:32.279Z,7.00
2023-05-01T00:56:34.827Z,7.03
2023-05-01T00:57:37.430Z,7.02
2023-05-01T00:58:40.141Z,7.02
2023-05-01T00:59:42.905Z,7.03
2023-05-01T01:00:45.310Z,7.00
2023-05-01T01:01:47.746Z,6.98
2023-05-01T01:02:50.460Z,6.98
2023-05-01T01:03:52.806Z,7.00
2023-05-01T01:04:55.203Z,6.99
2023-05-01T01:06:18.369Z,7.01
2023-05-01T01:07:49.411Z,7.02
2023-05-01T01:10:46.910Z,7.23
2023-05-01T01:12:17.552Z,7.04
2023-05-01T01:13:38.616Z,7.09
2023-05-01T01:15:06.228Z,7.13
2023-05-01T01:16:15.489Z,7.20
2023-05-01T01:17:33.430Z,7.23
2023-05-01T01:18:42.569Z,7.26
2023-05-01T01:20:17.423Z,7.29
2023-05-01T01:22:44.879Z,7.49
2023-05-01T01:24:10.822Z,7.40
2023-05-01T01:25:31.830Z,7.45
2023-05-01T01:26:40.584Z,7.54
2023-05-01T01:28:14.673Z,7.60
2023-05-01T01:29:23.284Z,7.64
2023-05-01T01:30:45.155Z,7.71
2023-05-01T01:32:08.881Z,7.73
2023-05-01T01:33:36.079Z,7.76
2023-05-01T01:35:59.715Z,7.94
2023-05-01T01:37:23.947Z,7.85
2023-05-01T01:39:55.105Z,8.02
2023-05-01T01:41:13.825Z,7.92
2023-05-01T01:42:19.628Z,7.95
2023-05-01T01:43:24.208Z,7.99
2023-05-01T01:45:46.080Z,8.15
2023-05-01T01:46:52.751Z,8.04
2023-05-01T01:47:56.682Z,8.07
2023-05-01T01:49:02.465Z,8.10
2023-05-01T01:50:07.233Z,8.12
2023-05-01T01:52:25.129Z,8.27
2023-05-01T01:53:30.073Z,8.19
2023-05-01T01:54:39.776Z,8.20
2023-05-01T01:55:44.521Z,8.22
2023-05-01T01:56:50.024Z,8.25
2023-05-01T01:57:53.283Z,8.29
2023-05-01T01:58:57.800Z,8.32
2023-05-01T02:00:00.017Z,8.34
2023-05-01T02:01:03.880Z,8.36
2023-05-01T02:02:08.360Z,8.39
2023-05-01T02:03:12.991Z,8.40
2023-05-01T02:04:17.621Z,8.41
2023-05-01T02:05:21.220Z,8.44
2023-05-01T02:06:25.440Z,8.47
2023-05-01T02:07:30.086Z,8.48
2023-05-01T02:08:35.056Z,8.50
2023-05-01T02:09:39.940Z,8.53
2023-05-01T02:10:45.010Z,8.53
2023-05-01T02:11:48.995Z,8.56
2023-05-01T02:12:53.613Z,8.56
2023-05-01T02:13:58.893Z,8.59
2023-05-01T02:15:02.014Z,8.59
2023-05-01T02:16:05.579Z,8.60
2023-05-01T02:17:10.298Z,8.61
2023-05-01T02:18:14.655Z,8.61
2023-05-01T02:19:18.392Z,8.60
2023-05-01T02:20:21.749Z,8.61
2023-05-01T02:21:25.270Z,8.60
2023-05-01T02:22:29.150Z,8.61
2023-05-01T02:23:31.606Z,8.62
2023-05-01T02:24:36.379Z,8.61
2023-05-01T02:25:39.816Z,8.60
2023-05-01T02:26:45.074Z,8.60
2023-05-01T02:28:03.505Z,8.58
2023-05-01T02:29:05.818Z,8.58
2023-05-01T02:30:11.811Z,8.54
2023-05-01T02:31:14.219Z,8.53
2023-05-01T02:32:17.082Z,8.53
2023-05-01T02:33:20.072Z,8.49
2023-05-01T02:34:22.396Z,8.49
2023-05-01T02:35:24.703Z,8.47
2023-05-01T02:36:26.759Z,8.47
2023-05-01T02:37:29.133Z,8.48
2023-05-01T02:38:31.384Z,8.46
2023-05-01T02:39:34.466Z,8.48
2023-05-01T02:40:38.708Z,8.48
2023-05-01T02:41:41.684Z,8.46
2023-05-01T02:42:45.297Z,8.46
2023-05-01T02:43:51.054Z,8.46
2023-05-01T02:46:14.123Z,8.56
2023-05-01T02:47:20.725Z,8.44
2023-05-01T02:49:37.960Z,8.57
2023-05-01T02:50:42.673Z,8.44
2023-05-01T02:51:46.764Z,8.47
2023-05-01T02:52:50.758Z,8.45
2023-05-01T02:54:01.620Z,8.44
2023-05-01T02:55:04.606Z,8.46
2023-05-01T02:56:07.770Z,8.46
2023-05-01T02:57:10.957Z,8.45
2023-05-01T02:58:17.216Z,8.45
2023-05-01T02:59:19.320Z,8.47
2023-05-01T03:00:21.667Z,8.47
2023-05-01T03:01:23.922Z,8.49
2023-05-01T03:02:26.257Z,8.49
2023-05-01T03:03:28.527Z,8.50
2023-05-01T03:04:30.816Z,8.49
2023-05-01T03:05:32.933Z,8.48
2023-05-01T03:06:36.438Z,8.47
2023-05-01T03:07:38.602Z,8.46
2023-05-01T03:08:41.342Z,8.44
2023-05-01T03:09:44.008Z,8.45
2023-05-01T03:10:46.178Z,8.45
2023-05-01T03:11:48.701Z,8.45
2023-05-01T03:12:51.020Z,8.43
2023-05-01T03:13:53.282Z,8.43
2023-05-01T03:14:55.910Z,8.41
2023-05-01T03:15:58.088Z,8.39
2023-05-01T03:17:00.503Z,8.39
2023-05-01T03:18:03.530Z,8.39
2023-05-01T03:19:05.889Z,8.40
2023-05-01T03:20:08.764Z,8.42
2023-05-01T03:21:11.016Z,8.42
2023-05-01T03:22:13.188Z,8.44
2023-05-01T03:23:15.410Z,8.47
2023-05-01T03:24:17.691Z,8.48
2023-05-01T03:25:20.742Z,8.50
2023-05-01T03:26:23.447Z,8.56
2023-05-01T03:27:26.155Z,8.58
2023-05-01T03:28:30.410Z,8.62
2023-05-01T03:29:33.460Z,8.66
2023-05-01T03:30:36.417Z,8.69
2023-05-01T03:31:38.733Z,8.70
2023-05-01T03:32:42.701Z,8.69
2023-05-01T03:33:47.381Z,8.70
2023-05-01T03:34:51.488Z,8.69
2023-05-01T03:36:05.275Z,8.70
2023-05-01T03:37:08.302Z,8.73
2023-05-01T03:38:10.972Z,8.74
2023-05-01T03:39:31.558Z,8.78
2023-05-01T03:41:47.332Z,8.97
2023-05-01T03:42:54.177Z,8.87
2023-05-01T03:43:58.564Z,8.93
2023-05-01T03:45:11.792Z,8.96
2023-05-01T03:46:15.078Z,9.03
2023-05-01T03:47:17.739Z,9.05
2023-05-01T03:48:20.228Z,9.06
2023-05-01T03:49:22.812Z,9.09
2023-05-01T03:50:26.056Z,9.12
2023-05-01T03:51:28.847Z,9.12
2023-05-01T03:52:31.443Z,9.13
2023-05-01T03:53:34.387Z,9.11
2023-05-01T03:54:38.770Z,9.12
2023-05-01T03:55:57.929Z,9.12
2023-05-01T03:57:00.270Z,9.13
2023-05-01T03:58:02.536Z,9.14
2023-05-01T03:59:05.930Z,9.15
2023-05-01T04:00:09.538Z,9.13
2023-05-01T04:01:17.703Z,9.13
2023-05-01T04:02:20.148Z,9.11
2023-05-01T04:03:22.894Z,9.11
2023-05-01T04:04:27.142Z,9.12
2023-05-01T04:05:31.332Z,9.10
2023-05-01T04:06:35.813Z,9.12
2023-05-01T04:07:38.678Z,9.12
2023-05-01T04:08:41.560Z,9.10
2023-05-01T04:09:44.417Z,9.12
2023-05-01T04:10:46.842Z,9.11
2023-05-01T04:11:49.050Z,9.07
2023-05-01T04:12:51.697Z,9.07
2023-05-01T04:13:54.155Z,9.07
2023-05-01T04:14:56.308Z,9.07
2023-05-01T04:15:58.584Z,9.07
2023-05-01T04:17:01.735Z,9.04
2023-05-01T04:18:04.113Z,9.03
2023-05-01T04:19:06.875Z,9.02
2023-05-01T04:20:11.440Z,9.02
2023-05-01T04:21:14.298Z,9.01
2023-05-01T04:22:16.580Z,8.99
2023-05-01T04:23:20.117Z,9.00
2023-05-01T04:24:22.874Z,8.98
2023-05-01T04:25:24.970Z,8.97
2023-05-01T04:26:29.178Z,8.98
2023-05-01T04:27:32.141Z,8.98
2023-05-01T04:28:35.035Z,8.99
2023-05-01T04:29:38.167Z,8.99
2023-05-01T04:30:40.526Z,9.00
2023-05-01T04:31:43.691Z,9.00
2023-05-01T04:32:45.992Z,9.00
2023-05-01T04:33:48.776Z,9.03
2023-05-01T04:34:51.068Z,9.03
2023-05-01T04:35:53.622Z,9.04
2023-05-01T04:36:56.289Z,9.07
2023-05-01T04:37:58.828Z,9.08
2023-05-01T04:39:01.265Z,9.09
2023-05-01T04:40:04.768Z,9.12
2023-05-01T04:41:07.185Z,9.14
2023-05-01T04:42:09.532Z,9.17
2023-05-01T04:43:12.957Z,9.19
2023-05-01T04:44:16.255Z,9.22
2023-05-01T04:45:18.320Z,9.25
2023-05-01T04:46:21.143Z,9.28
2023-05-01T04:47:23.369Z,9.30
2023-05-01T04:48:25.912Z,9.33
2023-05-01T04:49:28.216Z,9.35
2023-05-01T04:50:30.924Z,9.37
2023-05-01T04:51:33.218Z,9.40
2023-05-01T04:52:36.105Z,9.43
2023-05-01T04:53:38.938Z,9.44
2023-05-01T04:54:42.934Z,9.48
2023-05-01T04:55:45.375Z,9.50
2023-05-01T04:56:50.124Z,9.53
2023-05-01T04:57:52.448Z,9.56
2023-05-01T04:58:55.505Z,9.58
2023-05-01T04:59:59.657Z,9.61
2023-05-01T05:01:02.010Z,9.63
2023-05-01T05:02:04.324Z,9.64
2023-05-01T05:03:06.703Z,9.66
2023-05-01T05:04:09.686Z,9.68
2023-05-01T05:05:11.981Z,9.70
2023-05-01T05:06:15.287Z,9.73
2023-05-01T05:07:17.477Z,9.75
2023-05-01T05:08:24.637Z,9.78
2023-05-01T05:09:28.701Z,9.81
2023-05-01T05:10:31.680Z,9.85
2023-05-01T05:11:38.642Z,9.87
2023-05-01T05:12:50.286Z,9.89
2023-05-01T05:13:58.594Z,9.92
2023-05-01T05:15:04.074Z,9.95
2023-05-01T05:16:11.224Z,9.97
2023-05-01T05:17:19.485Z,9.99
2023-05-01T05:18:25.977Z,10.00
2023-05-01T05:19:31.058Z,10.02
2023-05-01T05:20:37.840Z,10.03
2023-05-01T05:21:40.457Z,10.04
2023-05-01T05:22:48.191Z,10.05
2023-05-01T05:23:53.864Z,10.06
2023-05-01T05:25:02.430Z,10.08
2023-05-01T05:26:22.499Z,10.09
2023-05-01T05:27:32.262Z,10.13
2023-05-01T05:30:04.612Z,10.18
2023-05-01T05:32:22.120Z,10.38
2023-05-01T05:33:24.489Z,10.31
2023-05-01T05:34:26.859Z,10.32
2023-05-01T05:35:29.894Z,10.34
2023-05-01T05:36:32.458Z,10.37
2023-05-01T05:37:34.760Z,10.37
2023-05-01T05:38:37.410Z,10.39
2023-05-01T05:39:41.015Z,10.39
2023-05-01T05:40:43.883Z,10.42
2023-05-01T05:41:47.168Z,10.44
2023-05-01T05:42:49.707Z,10.47
2023-05-01T05:43:51.899Z,10.50
2023-05-01T05:44:53.974Z,10.50
2023-05-01T05:45:58.301Z,10.52
2023-05-01T05:47:01.595Z,10.54
2023-05-01T05:48:05.780Z,10.56
2023-05-01T05:49:09.454Z,10.57
2023-05-01T05:50:12.376Z,10.59
2023-05-01T05:51:15.032Z,10.61
2023-05-01T05:52:17.336Z,10.63
2023-05-01T05:53:24.383Z,10.65
2023-05-01T05:54:26.648Z,10.66
2023-05-01T05:55:29.293Z,10.71
2023-05-01T05:56:36.606Z,10.74
2023-05-01T05:57:38.898Z,10.74
2023-05-01T05:58:41.942Z,10.76
2023-05-01T05:59:44.188Z,10.76
2023-05-01T06:00:50.998Z,10.76
2023-05-01T06:01:54.686Z,10.76
2023-05-01T06:02:57.563Z,10.77
2023-05-01T06:04:01.401Z,10.77
2023-05-01T06:05:04.993Z,10.78
2023-05-01T06:06:07.967Z,10.79
2023-05-01T06:07:10.451Z,10.81
2023-05-01T06:08:13.673Z,10.85
2023-05-01T06:09:16.177Z,10.87
2023-05-01T06:10:18.457Z,10.89
2023-05-01T06:11:21.158Z,10.91
2023-05-01T06:12:23.472Z,10.92
2023-05-01T06:13:26.861Z,10.95
2023-05-01T06:14:29.016Z,10.95
2023-05-01T06:15:31.191Z,10.96
2023-05-01T06:16:34.514Z,11.01
2023-05-01T06:17:37.218Z,11.02
2023-05-01T06:18:39.604Z,11.04
2023-05-01T06:19:41.894Z,11.06
2023-05-01T06:20:45.534Z,11.07
2023-05-01T06:21:47.905Z,11.10
2023-05-01T06:22:50.187Z,11.13
2023-05-01T06:23:54.732Z,11.13
2023-05-01T06:24:58.838Z,11.17
2023-05-01T06:26:02.053Z,11.20
2023-05-01T06:27:05.560Z,11.23
2023-05-01T06:28:08.206Z,11.25
2023-05-01T06:29:12.394Z,11.29
2023-05-01T06:30:15.325Z,11.31
2023-05-01T06:31:17.752Z,11.32
2023-05-01T06:32:21.781Z,11.35
2023-05-01T06:33:24.530Z,11.36
2023-05-01T06:34:29.185Z,11.39
2023-05-01T06:35:32.538Z,11.41
2023-05-01T06:36:34.752Z,11.44
2023-05-01T06:37:38.019Z,11.46
2023-05-01T06:38:41.384Z,11.49
2023-05-01T06:39:45.260Z,11.52
2023-05-01T06:40:49.041Z,11.56
2023-05-01T06:41:51.007Z,11.59
2023-05-01T06:42:53.575Z,11.60
2023-05-01T06:43:57.662Z,11.63
2023-05-01T06:45:00.391Z,11.63
2023-05-01T06:46:03.778Z,11.66
2023-05-01T06:47:06.372Z,11.70
2023-05-01T06:48:08.620Z,11.72
2023-05-01T06:49:10.902Z,11.76
2023-05-01T06:50:14.883Z,11.75
2023-05-01T06:51:16.836Z,11.79
2023-05-01T06:52:19.495Z,11.82
2023-05-01T06:53:21.770Z,11.84
2023-05-01T06:54:24.058Z,11.86
2023-05-01T06:55:27.278Z,11.88
2023-05-01T06:56:29.697Z,11.89
2023-05-01T06:57:32.809Z,11.91
2023-05-01T06:58:35.011Z,11.93
2023-05-01T06:59:37.575Z,11.94
2023-05-01T07:00:39.879Z,11.95
2023-05-01T07:01:42.126Z,11.97
2023-05-01T07:02:44.914Z,11.99
2023-05-01T07:03:47.284Z,12.01
2023-05-01T07:04:49.353Z,12.03
2023-05-01T07:05:51.375Z,12.08
2023-05-01T07:06:53.750Z,12.11
2023-05-01T07:08:01.225Z,12.16
2023-05-01T07:09:00.272Z,12.21
2023-05-01T07:10:03.397Z,12.25
2023-05-01T07:11:06.792Z,12.30
2023-05-01T07:12:08.912Z,12.34
2023-05-01T07:13:11.375Z,12.37
2023-05-01T07:14:13.967Z,12.39
2023-05-01T07:15:16.511Z,12.42
2023-05-01T07:16:18.808Z,12.47
2023-05-01T07:17:21.084Z,12.48
2023-05-01T07:18:23.326Z,12.49
2023-05-01T07:19:25.492Z,12.50
2023-05-01T07:20:28.032Z,12.52
2023-05-01T07:21:30.028Z,12.54
2023-05-01T07:22:32.019Z,12.56
2023-05-01T07:23:34.918Z,12.57
2023-05-01T07:24:36.932Z,12.58
2023-05-01T07:25:38.908Z,12.60
2023-05-01T07:26:41.197Z,12.63
2023-05-01T07:27:44.168Z,12.65
2023-05-01T07:28:46.426Z,12.68
2023-05-01T07:29:50.098Z,12.68
2023-05-01T07:30:52.996Z,12.71
2023-05-01T07:31:55.729Z,12.73
2023-05-01T07:32:58.079Z,12.75
2023-05-01T07:34:00.135Z,12.79
2023-05-01T07:35:02.600Z,12.82
2023-05-01T07:36:05.061Z,12.88
2023-05-01T07:37:08.149Z,12.92
2023-05-01T07:38:10.398Z,12.96
2023-05-01T07:39:13.122Z,12.98
2023-05-01T07:40:16.097Z,13.02
2023-05-01T07:41:18.506Z,13.04
2023-05-01T07:42:21.723Z,13.06
2023-05-01T07:43:23.860Z,13.04
2023-05-01T07:44:26.858Z,13.05
2023-05-01T07:45:29.756Z,13.06
2023-05-01T07:46:32.767Z,13.09
2023-05-01T07:47:35.176Z,13.13
2023-05-01T07:48:39.018Z,13.16
2023-05-01T07:49:41.430Z,13.20
2023-05-01T07:50:43.594Z,13.19
2023-05-01T07:51:46.886Z,13.18
2023-05-01T07:52:48.976Z,13.17
2023-05-01T07:53:51.127Z,13.17
2023-05-01T07:54:53.769Z,13.18
2023-05-01T07:56:07.292Z,13.20
2023-05-01T07:57:09.501Z,13.21
2023-05-01T07:58:11.470Z,13.23
2023-05-01T07:59:15.517Z,13.26
2023-05-01T08:00:18.182Z,13.26
2023-05-01T08:01:20.222Z,13.29
2023-05-01T08:02:22.687Z,13.31
2023-05-01T08:03:27.174Z,13.35
2023-05-01T08:04:29.774Z,13.37
2023-05-01T08:05:31.976Z,13.41
2023-05-01T08:06:34.773Z,13.47
2023-05-01T08:07:37.230Z,13.52
2023-05-01T08:08:39.429Z,13.56
2023-05-01T08:09:41.595Z,13.60
2023-05-01T08:10:43.976Z,13.63
2023-05-01T08:11:46.049Z,13.66
2023-05-01T08:12:48.197Z,13.67
2023-05-01T08:13:50.299Z,13.69
2023-05-01T08:14:52.707Z,13.72
2023-05-01T08:15:55.315Z,13.77
2023-05-01T08:16:57.659Z,13.83
2023-05-01T08:17:59.843Z,13.88
2023-05-01T08:19:02.719Z,13.93
2023-05-01T08:20:05.756Z,13.96
2023-05-01T08:21:09.964Z,13.99
2023-05-01T08:22:12.228Z,14.03
2023-05-01T08:23:15.906Z,14.05
2023-05-01T08:24:18.204Z,14.04
2023-05-01T08:25:20.858Z,14.05
2023-05-01T08:26:23.143Z,14.06
2023-05-01T08:27:26.117Z,14.09
2023-05-01T08:28:28.349Z,14.11
2023-05-01T08:29:30.613Z,14.11
2023-05-01T08:30:33.720Z,14.12
2023-05-01T08:31:36.002Z,14.12
2023-05-01T08:32:38.175Z,14.13
2023-05-01T08:33:40.319Z,14.15
2023-05-01T08:34:42.557Z,14.15
2023-05-01T08:35:44.701Z,14.12
2023-05-01T08:36:47.356Z,14.10
2023-05-01T08:37:49.495Z,14.07
2023-05-01T08:38:51.686Z,14.07
2023-05-01T08:39:54.560Z,14.07
2023-05-01T08:40:57.051Z,14.09
2023-05-01T08:41:59.194Z,14.12
2023-05-01T08:43:01.589Z,14.16
2023-05-01T08:44:04.612Z,14.18
2023-05-01T08:45:11.181Z,14.22
2023-05-01T08:46:17.650Z,14.26
2023-05-01T08:47:21.397Z,14.27
2023-05-01T08:48:25.647Z,14.29
2023-05-01T08:49:29.937Z,14.29
2023-05-01T08:51:45.948Z,14.43
2023-05-01T08:52:51.167Z,14.36
2023-05-01T08:53:55.489Z,14.38
2023-05-01T08:55:00.600Z,14.40
2023-05-01T08:56:06.940Z,14.44
2023-05-01T08:57:11.161Z,14.45
2023-05-01T08:58:14.539Z,14.47
2023-05-01T08:59:18.849Z,14.51
2023-05-01T09:00:21.723Z,14.51
2023-05-01T09:01:24.940Z,14.53
2023-05-01T09:02:28.116Z,14.54
2023-05-01T09:03:32.792Z,14.57
2023-05-01T09:04:38.330Z,14.59
2023-05-01T09:05:40.568Z,14.60
2023-05-01T09:06:43.811Z,14.62
2023-05-01T09:07:47.073Z,14.65
2023-05-01T09:08:49.828Z,14.66
2023-05-01T09:09:52.474Z,14.70
2023-05-01T09:10:58.258Z,14.72
2023-05-01T09:13:19.074Z,14.84
2023-05-01T09:14:21.544Z,14.73
2023-05-01T09:15:26.094Z,14.72
2023-05-01T09:16:29.209Z,14.75
2023-05-01T09:17:32.783Z,14.76
2023-05-01T09:18:35.090Z,14.75
2023-05-01T09:19:37.879Z,14.79
2023-05-01T09:20:40.355Z,14.83
2023-05-01T09:21:43.114Z,14.87
2023-05-01T09:22:46.360Z,14.93
2023-05-01T09:23:51.365Z,14.92
2023-05-01T09:24:55.842Z,14.90
2023-05-01T09:25:59.892Z,14.85
2023-05-01T09:27:02.612Z,14.84
2023-05-01T09:28:05.737Z,14.84
2023-05-01T09:29:08.154Z,14.84
2023-05-01T09:30:29.634Z,14.90
2023-05-01T09:31:32.689Z,14.95
2023-05-01T09:32:35.102Z,15.00
2023-05-01T09:33:40.994Z,15.01
2023-05-01T09:34:51.096Z,15.00
2023-05-01T09:35:56.672Z,15.04
2023-05-01T09:36:59.060Z,15.06
2023-05-01T09:38:01.229Z,15.09
2023-05-01T09:39:03.957Z,15.12
2023-05-01T09:40:12.571Z,15.14
2023-05-01T09:41:15.829Z,15.13
2023-05-01T09:42:22.548Z,15.15
2023-05-01T09:43:26.718Z,15.15
2023-05-01T09:44:29.054Z,15.16
2023-05-01T09:45:31.698Z,15.19
2023-05-01T09:46:37.434Z,15.24
2023-05-01T09:47:41.479Z,15.27
2023-05-01T09:49:01.221Z,15.29
2023-05-01T09:50:03.851Z,15.27
2023-05-01T09:52:30.217Z,15.44
2023-05-01T09:54:46.562Z,15.50
2023-05-01T09:56:01.017Z,15.37
2023-05-01T09:57:03.776Z,15.43
2023-05-01T09:58:06.293Z,15.47
2023-05-01T09:59:16.735Z,15.49
2023-05-01T10:00:19.657Z,15.53
2023-05-01T10:01:41.704Z,15.53
2023-05-01T10:02:45.478Z,15.54
2023-05-01T10:03:52.473Z,15.57
2023-05-01T10:05:00.154Z,15.60
2023-05-01T10:06:02.508Z,15.58
2023-05-01T10:08:29.753Z,15.66
2023-05-01T10:09:32.126Z,15.51
2023-05-01T10:10:34.730Z,15.49
2023-05-01T10:11:51.369Z,15.45
2023-05-01T10:12:53.753Z,15.45
2023-05-01T10:14:09.871Z,15.44
2023-05-01T10:15:24.572Z,15.41
2023-05-01T10:16:29.784Z,15.44
2023-05-01T10:17:33.393Z,15.46
2023-05-01T10:18:37.147Z,15.51
2023-05-01T10:19:39.388Z,15.55
2023-05-01T10:20:41.975Z,15.62
2023-05-01T10:21:44.444Z,15.65
2023-05-01T10:22:46.772Z,15.67
2023-05-01T10:23:49.579Z,15.64
2023-05-01T10:24:52.383Z,15.55
2023-05-01T10:25:55.961Z,15.50
2023-05-01T10:27:00.158Z,15.43
2023-05-01T10:28:06.391Z,15.40
2023-05-01T10:29:08.815Z,15.42
2023-05-01T10:30:11.938Z,15.43
2023-05-01T10:31:14.919Z,15.47
2023-05-01T10:32:17.578Z,15.50
2023-05-01T10:33:20.469Z,15.51
2023-05-01T10:34:26.215Z,15.52
2023-05-01T10:35:35.865Z,15.54
2023-05-01T10:36:45.136Z,15.55
2023-05-01T10:39:00.161Z,15.68
2023-05-01T10:40:22.615Z,15.54
2023-05-01T10:43:18.647Z,15.60
2023-05-01T10:44:23.163Z,15.49
2023-05-01T10:45:28.896Z,15.51
2023-05-01T10:46:31.899Z,15.58
2023-05-01T10:47:37.770Z,15.61
2023-05-01T10:48:44.038Z,15.64
2023-05-01T10:50:10.870Z,15.68
2023-05-01T10:51:14.898Z,15.74
2023-05-01T10:52:17.586Z,15.82
2023-05-01T10:53:19.760Z,15.85
2023-05-01T10:54:23.957Z,15.89
2023-05-01T10:55:37.319Z,15.88
2023-05-01T10:56:41.766Z,15.86
2023-05-01T10:57:44.159Z,15.87
2023-05-01T10:58:50.837Z,15.88
2023-05-01T11:00:05.420Z,15.91
2023-05-01T11:02:39.609Z,16.06
2023-05-01T11:03:41.952Z,15.97
2023-05-01T11:04:49.718Z,15.99
2023-05-01T11:06:05.027Z,16.01
2023-05-01T11:07:16.147Z,16.03
2023-05-01T11:08:38.623Z,16.07
2023-05-01T11:12:14.864Z,16.18
2023-05-01T11:13:21.172Z,16.07
2023-05-01T11:14:23.413Z,16.04
2023-05-01T11:15:31.046Z,16.03
2023-05-01T11:16:41.840Z,16.05
2023-05-01T11:17:46.368Z,16.03
2023-05-01T11:18:48.626Z,16.04
2023-05-01T11:19:50.723Z,16.05
2023-05-01T11:20:53.310Z,16.06
2023-05-01T11:21:56.058Z,16.06
2023-05-01T11:22:58.597Z,16.03
2023-05-01T11:24:01.161Z,16.03
2023-05-01T11:25:06.589Z,16.03
2023-05-01T11:26:09.112Z,16.05
2023-05-01T11:27:13.589Z,16.06
2023-05-01T11:28:18.679Z,16.13
2023-05-01T11:29:21.508Z,16.19
2023-05-01T11:30:24.601Z,16.25
2023-05-01T11:31:27.709Z,16.32
2023-05-01T11:32:30.332Z,16.36
2023-05-01T11:33:32.987Z,16.40
2023-05-01T11:34:35.351Z,16.40
2023-05-01T11:35:38.126Z,16.42
2023-05-01T11:37:58.875Z,16.54
2023-05-01T11:39:01.060Z,16.45
2023-05-01T11:40:03.640Z,16.46
2023-05-01T11:41:05.887Z,16.43
2023-05-01T11:43:24.022Z,16.47
2023-05-01T11:44:26.677Z,16.32
2023-05-01T11:45:29.951Z,16.37
2023-05-01T11:46:33.116Z,16.36
2023-05-01T11:47:36.550Z,16.40
2023-05-01T11:48:38.829Z,16.40
2023-05-01T11:49:41.448Z,16.41
2023-05-01T11:50:43.866Z,16.46
2023-05-01T11:51:51.805Z,16.47
2023-05-01T11:52:54.485Z,16.49
2023-05-01T11:54:05.515Z,16.47
2023-05-01T11:55:08.035Z,16.42
2023-05-01T11:56:26.759Z,16.37
2023-05-01T11:57:25.257Z,16.35
2023-05-01T11:58:32.044Z,16.34
2023-05-01T11:59:34.373Z,16.34
2023-05-01T12:01:51.190Z,16.44
2023-05-01T12:03:12.416Z,16.34
2023-05-01T12:04:24.241Z,16.38
2023-05-01T12:05:27.861Z,16.45
2023-05-01T12:06:39.161Z,16.52
2023-05-01T12:07:41.985Z,16.56
2023-05-01T12:08:50.202Z,16.61
2023-05-01T12:09:52.495Z,16.68
2023-05-01T12:10:57.614Z,16.70
2023-05-01T12:12:00.201Z,16.68
2023-05-01T12:13:04.510Z,16.69
2023-05-01T12:14:07.728Z,16.71
2023-05-01T12:15:10.746Z,16.66
2023-05-01T12:16:13.367Z,16.68
2023-05-01T12:17:16.220Z,16.70
2023-05-01T12:18:19.400Z,16.72
2023-05-01T12:19:22.460Z,16.71
2023-05-01T12:20:37.167Z,16.75
2023-05-01T12:21:40.694Z,16.78
2023-05-01T12:22:49.537Z,16.83
2023-05-01T12:23:51.803Z,16.81
2023-05-01T12:24:54.018Z,16.79
2023-05-01T12:25:56.345Z,16.80
2023-05-01T12:28:12.599Z,16.90
2023-05-01T12:29:15.254Z,16.84
2023-05-01T12:30:21.156Z,16.85
2023-05-01T12:31:24.615Z,16.89
2023-05-01T12:32:32.031Z,16.93
2023-05-01T12:33:34.283Z,16.99
2023-05-01T12:34:36.440Z,17.02
2023-05-01T12:35:40.048Z,17.00
2023-05-01T12:36:47.066Z,16.98
2023-05-01T12:37:49.603Z,16.95
2023-05-01T12:39:06.918Z,16.94
2023-05-01T12:40:16.350Z,16.94
2023-05-01T12:41:18.597Z,16.93
2023-05-01T12:42:21.744Z,16.87
2023-05-01T12:43:32.605Z,16.85
2023-05-01T12:44:34.856Z,16.82
2023-05-01T12:45:40.122Z,16.80
2023-05-01T12:46:44.063Z,16.81
2023-05-01T12:47:46.427Z,16.80
2023-05-01T12:48:49.312Z,16.83
2023-05-01T12:49:55.182Z,16.84
2023-05-01T12:50:57.961Z,16.84
2023-05-01T12:52:01.273Z,16.85
2023-05-01T12:53:03.877Z,16.84
2023-05-01T12:54:06.033Z,16.86
2023-05-01T12:55:08.514Z,16.88
2023-05-01T12:56:22.489Z,16.88
2023-05-01T12:57:25.577Z,16.87
2023-05-01T12:59:46.406Z,16.99
2023-05-01T13:00:54.112Z,16.87
2023-05-01T13:03:11.671Z,17.03
2023-05-01T13:05:30.293Z,17.12
2023-05-01T13:06:33.152Z,17.00
2023-05-01T13:07:36.762Z,17.03
2023-05-01T13:08:40.178Z,17.09
2023-05-01T13:09:53.524Z,17.13
2023-05-01T13:10:58.256Z,17.16
2023-05-01T13:12:04.383Z,17.19
2023-05-01T13:13:07.138Z,17.20
2023-05-01T13:14:10.418Z,17.23
2023-05-01T13:16:29.535Z,17.38
2023-05-01T13:17:32.497Z,17.28
2023-05-01T13:18:43.557Z,17.32
2023-05-01T13:19:49.349Z,17.37
2023-05-01T13:20:52.062Z,17.33
2023-05-01T13:21:56.213Z,17.33
2023-05-01T13:22:58.412Z,17.32
2023-05-01T13:24:01.143Z,17.29
2023-05-01T13:26:26.114Z,17.40
2023-05-01T13:27:28.735Z,17.29
2023-05-01T13:28:31.411Z,17.34
2023-05-01T13:29:34.030Z,17.37
2023-05-01T13:30:36.866Z,17.37
2023-05-01T13:31:45.466Z,17.34
2023-05-01T13:32:49.179Z,17.31
2023-05-01T13:33:55.411Z,17.31
2023-05-01T13:35:02.797Z,17.33
2023-05-01T13:36:14.276Z,17.35
2023-05-01T13:37:11.276Z,17.37
2023-05-01T13:38:14.430Z,17.38
2023-05-01T13:39:20.862Z,17.39
2023-05-01T13:40:25.744Z,17.37
2023-05-01T13:41:28.535Z,17.39
2023-05-01T13:42:30.821Z,17.37
2023-05-01T13:43:34.965Z,17.35
2023-05-01T13:44:45.846Z,17.37
2023-05-01T13:45:48.109Z,17.39
2023-05-01T13:46:50.450Z,17.39
2023-05-01T13:47:53.227Z,17.39
2023-05-01T13:48:57.202Z,17.38
2023-05-01T13:49:59.553Z,17.37
2023-05-01T13:51:01.845Z,17.38
2023-05-01T13:52:04.239Z,17.39
2023-05-01T13:53:06.373Z,17.42
2023-05-01T13:54:09.931Z,17.46
2023-05-01T13:55:13.355Z,17.51
2023-05-01T13:56:16.298Z,17.51
2023-05-01T13:57:18.443Z,17.50
2023-05-01T13:58:20.583Z,17.50
2023-05-01T13:59:22.740Z,17.50
2023-05-01T14:00:26.049Z,17.47
2023-05-01T14:01:28.665Z,17.46
2023-05-01T14:02:31.034Z,17.45
2023-05-01T14:03:39.616Z,17.45
2023-05-01T14:04:44.488Z,17.43
2023-05-01T14:05:47.513Z,17.44
2023-05-01T14:06:50.237Z,17.42
2023-05-01T14:07:57.574Z,17.44
2023-05-01T14:08:59.669Z,17.43
2023-05-01T14:10:01.931Z,17.47
2023-05-01T14:11:07.453Z,17.43
2023-05-01T14:12:11.766Z,17.43
2023-05-01T14:13:17.602Z,17.40
2023-05-01T14:14:20.126Z,17.39
2023-05-01T14:15:22.365Z,17.37
2023-05-01T14:16:27.413Z,17.31
2023-05-01T14:17:32.002Z,17.33
2023-05-01T14:18:34.794Z,17.31
2023-05-01T14:19:38.762Z,17.34
2023-05-01T14:20:43.300Z,17.36
2023-05-01T14:21:45.674Z,17.35
2023-05-01T14:22:48.720Z,17.37
2023-05-01T14:23:55.766Z,17.36
2023-05-01T14:24:58.446Z,17.36
2023-05-01T14:26:01.068Z,17.38
2023-05-01T14:27:03.920Z,17.39
2023-05-01T14:28:06.726Z,17.41
2023-05-01T14:29:19.013Z,17.45
2023-05-01T14:30:38.034Z,17.46
2023-05-01T14:31:40.438Z,17.46
2023-05-01T14:32:43.177Z,17.43
2023-05-01T14:33:45.856Z,17.44
2023-05-01T14:34:47.956Z,17.42
2023-05-01T14:35:52.481Z,17.35
2023-05-01T14:36:55.693Z,17.32
2023-05-01T14:38:01.494Z,17.30
2023-05-01T14:39:04.120Z,17.25
2023-05-01T14:40:10.929Z,17.21
2023-05-01T14:41:13.910Z,17.18
2023-05-01T14:42:16.156Z,17.18